sensor_id;sensor_type;location;lat;lon;timestamp;P1;durP1;ratioP1;P2;durP2;ratioP2
21170;SDS011;10743;52.160;20.910;2023-04-01T00:00:06;13.73;;;7.15;;
21170;SDS011;10743;52.160;20.910;2023-04-01T00:02:37;16.30;;;7.60;;
21170;SDS011;10743;52.160;20.910;2023-04-01T00:05:04;15.35;;;7.82;;
21170;SDS011;10743;52.160;20.910;2023-04-01T00:07:32;14.70;;;7.22;;
21170;SDS011;10743;52.160;20.910;2023-04-01T00:09:59;14.68;;;7.80;;
21170;SDS011;10743;52.160;20.910;2023-04-01T00:12:26;14.23;;;8.02;;
21170;SDS011;10743;52.160;20.910;2023-04-01T00:14:53;17.33;;;7.72;;
21170;SDS011;10743;52.160;20.910;2023-04-01T00:17:20;14.18;;;8.02;;
21170;SDS011;10743;52.160;20.910;2023-04-01T00:19:47;15.65;;;8.45;;
21170;SDS011;10743;52.160;20.910;2023-04-01T00:22:15;13.88;;;7.80;;
21170;SDS011;10743;52.160;20.910;2023-04-01T00:24:42;18.23;;;8.50;;
21170;SDS011;10743;52.160;20.910;2023-04-01T00:27:09;14.98;;;8.07;;
21170;SDS011;10743;52.160;20.910;2023-04-01T00:29:36;16.10;;;7.60;;
21170;SDS011;10743;52.160;20.910;2023-04-01T00:32:03;14.30;;;7.68;;
21170;SDS011;10743;52.160;20.910;2023-04-01T00:34:30;14.95;;;7.55;;
21170;SDS011;10743;52.160;20.910;2023-04-01T00:36:57;12.65;;;8.07;;
21170;SDS011;10743;52.160;20.910;2023-04-01T00:39:24;14.95;;;8.50;;
21170;SDS011;10743;52.160;20.910;2023-04-01T00:41:52;16.13;;;8.70;;
21170;SDS011;10743;52.160;20.910;2023-04-01T00:46:49;15.10;;;7.88;;
21170;SDS011;10743;52.160;20.910;2023-04-01T00:49:19;13.02;;;7.47;;
21170;SDS011;10743;52.160;20.910;2023-04-01T00:51:51;17.67;;;8.02;;
21170;SDS011;10743;52.160;20.910;2023-04-01T00:54:23;12.25;;;7.65;;
21170;SDS011;10743;52.160;20.910;2023-04-01T00:56:53;17.33;;;8.40;;
21170;SDS011;10743;52.160;20.910;2023-04-01T00:59:43;14.10;;;8.48;;
21170;SDS011;10743;52.160;20.910;2023-04-01T01:02:15;16.52;;;9.07;;
21170;SDS011;10743;52.160;20.910;2023-04-01T01:04:44;19.30;;;8.88;;
21170;SDS011;10743;52.160;20.910;2023-04-01T01:10:15;17.45;;;8.55;;
21170;SDS011;10743;52.160;20.910;2023-04-01T01:12:57;14.80;;;8.75;;
21170;SDS011;10743;52.160;20.910;2023-04-01T01:15:47;19.58;;;9.23;;
21170;SDS011;10743;52.160;20.910;2023-04-01T01:24:42;17.80;;;9.00;;
21170;SDS011;10743;52.160;20.910;2023-04-01T01:27:24;20.33;;;10.25;;
21170;SDS011;10743;52.160;20.910;2023-04-01T01:32:59;19.77;;;10.35;;
21170;SDS011;10743;52.160;20.910;2023-04-01T01:35:55;20.35;;;10.25;;
21170;SDS011;10743;52.160;20.910;2023-04-01T01:38:26;19.58;;;9.88;;
21170;SDS011;10743;52.160;20.910;2023-04-01T01:41:00;19.55;;;10.38;;
21170;SDS011;10743;52.160;20.910;2023-04-01T01:43:30;21.13;;;9.95;;
21170;SDS011;10743;52.160;20.910;2023-04-01T01:46:05;16.75;;;10.38;;
21170;SDS011;10743;52.160;20.910;2023-04-01T01:48:38;21.48;;;10.13;;
21170;SDS011;10743;52.160;20.910;2023-04-01T01:51:08;25.08;;;11.77;;
21170;SDS011;10743;52.160;20.910;2023-04-01T01:53:35;18.17;;;9.98;;
21170;SDS011;10743;52.160;20.910;2023-04-01T01:56:02;15.48;;;9.43;;
21170;SDS011;10743;52.160;20.910;2023-04-01T01:58:36;17.00;;;8.82;;
21170;SDS011;10743;52.160;20.910;2023-04-01T02:01:16;18.90;;;10.07;;
21170;SDS011;10743;52.160;20.910;2023-04-01T02:03:49;20.70;;;9.48;;
21170;SDS011;10743;52.160;20.910;2023-04-01T02:06:19;18.38;;;9.65;;
21170;SDS011;10743;52.160;20.910;2023-04-01T02:11:34;16.13;;;9.80;;
21170;SDS011;10743;52.160;20.910;2023-04-01T02:14:10;17.77;;;10.25;;
21170;SDS011;10743;52.160;20.910;2023-04-01T02:16:45;21.33;;;10.50;;
21170;SDS011;10743;52.160;20.910;2023-04-01T02:22:37;19.33;;;9.07;;
21170;SDS011;10743;52.160;20.910;2023-04-01T02:25:10;23.73;;;10.70;;
21170;SDS011;10743;52.160;20.910;2023-04-01T02:27:42;21.63;;;10.70;;
21170;SDS011;10743;52.160;20.910;2023-04-01T02:30:12;19.17;;;10.77;;
21170;SDS011;10743;52.160;20.910;2023-04-01T02:32:41;23.50;;;11.30;;
21170;SDS011;10743;52.160;20.910;2023-04-01T02:35:10;21.80;;;11.05;;
21170;SDS011;10743;52.160;20.910;2023-04-01T02:37:40;20.20;;;11.27;;
21170;SDS011;10743;52.160;20.910;2023-04-01T02:40:11;21.20;;;10.90;;
21170;SDS011;10743;52.160;20.910;2023-04-01T02:42:41;19.27;;;10.57;;
21170;SDS011;10743;52.160;20.910;2023-04-01T02:45:09;18.35;;;10.82;;
21170;SDS011;10743;52.160;20.910;2023-04-01T02:47:37;20.42;;;11.05;;
21170;SDS011;10743;52.160;20.910;2023-04-01T02:50:04;20.65;;;11.63;;
21170;SDS011;10743;52.160;20.910;2023-04-01T02:52:33;21.90;;;11.43;;
21170;SDS011;10743;52.160;20.910;2023-04-01T02:55:01;19.45;;;11.13;;
21170;SDS011;10743;52.160;20.910;2023-04-01T02:57:29;22.33;;;11.13;;
21170;SDS011;10743;52.160;20.910;2023-04-01T02:59:56;23.00;;;12.60;;
21170;SDS011;10743;52.160;20.910;2023-04-01T03:02:23;22.83;;;11.63;;
21170;SDS011;10743;52.160;20.910;2023-04-01T03:04:51;20.00;;;11.10;;
21170;SDS011;10743;52.160;20.910;2023-04-01T03:07:18;26.45;;;11.82;;
21170;SDS011;10743;52.160;20.910;2023-04-01T03:09:45;23.35;;;11.68;;
21170;SDS011;10743;52.160;20.910;2023-04-01T03:12:12;20.33;;;11.02;;
21170;SDS011;10743;52.160;20.910;2023-04-01T03:14:48;20.65;;;10.90;;
21170;SDS011;10743;52.160;20.910;2023-04-01T03:17:16;21.90;;;11.17;;
21170;SDS011;10743;52.160;20.910;2023-04-01T03:19:43;20.23;;;11.13;;
21170;SDS011;10743;52.160;20.910;2023-04-01T03:22:11;20.73;;;11.75;;
21170;SDS011;10743;52.160;20.910;2023-04-01T03:24:38;20.10;;;11.70;;
21170;SDS011;10743;52.160;20.910;2023-04-01T03:27:05;20.08;;;10.57;;
21170;SDS011;10743;52.160;20.910;2023-04-01T03:29:32;18.42;;;10.50;;
21170;SDS011;10743;52.160;20.910;2023-04-01T03:31:59;19.85;;;11.15;;
21170;SDS011;10743;52.160;20.910;2023-04-01T03:34:26;22.98;;;10.95;;
21170;SDS011;10743;52.160;20.910;2023-04-01T03:36:53;18.83;;;10.43;;
21170;SDS011;10743;52.160;20.910;2023-04-01T03:39:20;18.35;;;10.32;;
21170;SDS011;10743;52.160;20.910;2023-04-01T03:41:49;20.98;;;11.35;;
21170;SDS011;10743;52.160;20.910;2023-04-01T03:44:16;21.83;;;11.38;;
21170;SDS011;10743;52.160;20.910;2023-04-01T03:46:46;23.00;;;11.10;;
21170;SDS011;10743;52.160;20.910;2023-04-01T03:49:14;21.23;;;10.80;;
21170;SDS011;10743;52.160;20.910;2023-04-01T03:51:42;19.70;;;11.25;;
21170;SDS011;10743;52.160;20.910;2023-04-01T03:54:10;21.63;;;10.93;;
21170;SDS011;10743;52.160;20.910;2023-04-01T03:56:38;16.63;;;10.30;;
21170;SDS011;10743;52.160;20.910;2023-04-01T03:59:06;17.30;;;10.38;;
21170;SDS011;10743;52.160;20.910;2023-04-01T04:01:34;18.15;;;10.43;;
21170;SDS011;10743;52.160;20.910;2023-04-01T04:04:01;19.17;;;10.23;;
21170;SDS011;10743;52.160;20.910;2023-04-01T04:06:29;21.45;;;10.50;;
21170;SDS011;10743;52.160;20.910;2023-04-01T04:08:56;16.88;;;9.57;;
21170;SDS011;10743;52.160;20.910;2023-04-01T04:11:23;17.45;;;9.07;;
21170;SDS011;10743;52.160;20.910;2023-04-01T04:13:51;15.68;;;9.52;;
21170;SDS011;10743;52.160;20.910;2023-04-01T04:16:20;17.48;;;10.35;;
21170;SDS011;10743;52.160;20.910;2023-04-01T04:18:54;17.00;;;8.75;;
21170;SDS011;10743;52.160;20.910;2023-04-01T04:21:22;16.92;;;8.90;;
21170;SDS011;10743;52.160;20.910;2023-04-01T04:23:50;17.33;;;9.40;;
21170;SDS011;10743;52.160;20.910;2023-04-01T04:26:18;17.65;;;9.48;;
21170;SDS011;10743;52.160;20.910;2023-04-01T04:28:53;15.32;;;9.10;;
21170;SDS011;10743;52.160;20.910;2023-04-01T04:31:22;13.98;;;8.57;;
21170;SDS011;10743;52.160;20.910;2023-04-01T04:33:53;15.00;;;8.43;;
21170;SDS011;10743;52.160;20.910;2023-04-01T04:36:22;18.90;;;8.80;;
21170;SDS011;10743;52.160;20.910;2023-04-01T04:38:50;14.88;;;7.97;;
21170;SDS011;10743;52.160;20.910;2023-04-01T04:41:18;14.90;;;8.23;;
21170;SDS011;10743;52.160;20.910;2023-04-01T04:43:50;14.50;;;8.43;;
21170;SDS011;10743;52.160;20.910;2023-04-01T04:46:21;16.00;;;8.60;;
21170;SDS011;10743;52.160;20.910;2023-04-01T04:48:56;16.13;;;8.68;;
21170;SDS011;10743;52.160;20.910;2023-04-01T04:51:23;15.07;;;8.45;;
21170;SDS011;10743;52.160;20.910;2023-04-01T04:53:51;13.65;;;7.88;;
21170;SDS011;10743;52.160;20.910;2023-04-01T04:56:25;14.75;;;8.32;;
21170;SDS011;10743;52.160;20.910;2023-04-01T04:59:06;15.43;;;8.43;;
21170;SDS011;10743;52.160;20.910;2023-04-01T05:01:46;13.50;;;8.00;;
21170;SDS011;10743;52.160;20.910;2023-04-01T05:04:13;13.73;;;7.68;;
21170;SDS011;10743;52.160;20.910;2023-04-01T05:06:42;11.88;;;7.18;;
21170;SDS011;10743;52.160;20.910;2023-04-01T05:09:10;13.52;;;7.22;;
21170;SDS011;10743;52.160;20.910;2023-04-01T05:11:37;16.52;;;7.65;;
21170;SDS011;10743;52.160;20.910;2023-04-01T05:14:04;11.63;;;7.03;;
21170;SDS011;10743;52.160;20.910;2023-04-01T05:16:32;12.93;;;7.70;;
21170;SDS011;10743;52.160;20.910;2023-04-01T05:18:59;12.15;;;6.75;;
21170;SDS011;10743;52.160;20.910;2023-04-01T05:21:26;12.38;;;7.13;;
21170;SDS011;10743;52.160;20.910;2023-04-01T05:23:55;11.95;;;7.18;;
21170;SDS011;10743;52.160;20.910;2023-04-01T05:26:23;14.52;;;7.30;;
21170;SDS011;10743;52.160;20.910;2023-04-01T05:28:51;22.67;;;10.40;;
21170;SDS011;10743;52.160;20.910;2023-04-01T05:31:19;22.90;;;12.38;;
21170;SDS011;10743;52.160;20.910;2023-04-01T05:33:48;15.65;;;9.40;;
21170;SDS011;10743;52.160;20.910;2023-04-01T05:36:15;16.13;;;9.60;;
21170;SDS011;10743;52.160;20.910;2023-04-01T05:38:43;12.82;;;7.50;;
21170;SDS011;10743;52.160;20.910;2023-04-01T05:41:16;15.38;;;8.35;;
21170;SDS011;10743;52.160;20.910;2023-04-01T05:43:44;10.50;;;6.70;;
21170;SDS011;10743;52.160;20.910;2023-04-01T05:46:30;14.18;;;6.93;;
21170;SDS011;10743;52.160;20.910;2023-04-01T05:49:24;15.02;;;8.73;;
21170;SDS011;10743;52.160;20.910;2023-04-01T05:51:54;15.23;;;8.33;;
21170;SDS011;10743;52.160;20.910;2023-04-01T05:54:22;18.02;;;10.23;;
21170;SDS011;10743;52.160;20.910;2023-04-01T05:56:49;17.42;;;9.32;;
21170;SDS011;10743;52.160;20.910;2023-04-01T05:59:18;15.75;;;8.90;;
21170;SDS011;10743;52.160;20.910;2023-04-01T06:01:45;17.33;;;10.27;;
21170;SDS011;10743;52.160;20.910;2023-04-01T06:04:14;17.25;;;9.95;;
21170;SDS011;10743;52.160;20.910;2023-04-01T06:06:44;21.50;;;10.40;;
21170;SDS011;10743;52.160;20.910;2023-04-01T06:09:13;17.40;;;11.05;;
21170;SDS011;10743;52.160;20.910;2023-04-01T06:14:32;18.67;;;10.30;;
21170;SDS011;10743;52.160;20.910;2023-04-01T06:19:54;19.40;;;10.68;;
21170;SDS011;10743;52.160;20.910;2023-04-01T06:53:18;21.83;;;12.20;;
21170;SDS011;10743;52.160;20.910;2023-04-01T06:56:58;27.65;;;12.32;;
21170;SDS011;10743;52.160;20.910;2023-04-01T06:59:37;20.08;;;12.63;;
21170;SDS011;10743;52.160;20.910;2023-04-01T07:02:13;23.52;;;13.07;;
21170;SDS011;10743;52.160;20.910;2023-04-01T07:04:55;22.20;;;12.55;;
21170;SDS011;10743;52.160;20.910;2023-04-01T07:07:31;20.55;;;12.30;;
21170;SDS011;10743;52.160;20.910;2023-04-01T07:10:17;24.23;;;12.93;;
21170;SDS011;10743;52.160;20.910;2023-04-01T07:13:41;24.40;;;13.25;;
21170;SDS011;10743;52.160;20.910;2023-04-01T07:16:27;26.48;;;13.98;;
21170;SDS011;10743;52.160;20.910;2023-04-01T07:22:50;24.52;;;13.32;;
21170;SDS011;10743;52.160;20.910;2023-04-01T07:25:33;25.20;;;13.57;;
21170;SDS011;10743;52.160;20.910;2023-04-01T07:28:26;22.63;;;14.00;;
21170;SDS011;10743;52.160;20.910;2023-04-01T07:37:02;23.15;;;13.48;;
21170;SDS011;10743;52.160;20.910;2023-04-01T07:56:27;26.48;;;15.65;;
21170;SDS011;10743;52.160;20.910;2023-04-01T07:59:47;37.25;;;19.80;;
21170;SDS011;10743;52.160;20.910;2023-04-01T08:05:45;32.05;;;18.63;;
21170;SDS011;10743;52.160;20.910;2023-04-01T08:14:58;24.42;;;14.43;;
21170;SDS011;10743;52.160;20.910;2023-04-01T08:18:22;25.70;;;14.43;;
21170;SDS011;10743;52.160;20.910;2023-04-01T08:21:01;23.67;;;13.40;;
21170;SDS011;10743;52.160;20.910;2023-04-01T08:24:46;22.40;;;13.02;;
21170;SDS011;10743;52.160;20.910;2023-04-01T08:30:21;20.90;;;12.32;;
21170;SDS011;10743;52.160;20.910;2023-04-01T08:33:09;26.27;;;13.52;;
21170;SDS011;10743;52.160;20.910;2023-04-01T08:41:20;28.88;;;15.98;;
21170;SDS011;10743;52.160;20.910;2023-04-01T08:47:56;19.67;;;11.77;;
21170;SDS011;10743;52.160;20.910;2023-04-01T09:00:34;20.38;;;10.00;;
21170;SDS011;10743;52.160;20.910;2023-04-01T09:06:48;14.77;;;9.10;;
21170;SDS011;10743;52.160;20.910;2023-04-01T09:25:41;15.73;;;9.65;;
21170;SDS011;10743;52.160;20.910;2023-04-01T09:34:58;8.85;;;4.68;;
21170;SDS011;10743;52.160;20.910;2023-04-01T09:45:52;13.75;;;7.68;;
21170;SDS011;10743;52.160;20.910;2023-04-01T10:18:46;7.72;;;4.50;;
21170;SDS011;10743;52.160;20.910;2023-04-01T10:37:21;10.63;;;6.53;;
21170;SDS011;10743;52.160;20.910;2023-04-01T10:49:48;7.35;;;3.75;;
21170;SDS011;10743;52.160;20.910;2023-04-01T10:59:25;2.42;;;2.05;;
21170;SDS011;10743;52.160;20.910;2023-04-01T11:09:19;6.53;;;4.60;;
21170;SDS011;10743;52.160;20.910;2023-04-01T11:18:58;13.90;;;6.38;;
21170;SDS011;10743;52.160;20.910;2023-04-01T11:31:55;10.18;;;6.07;;
21170;SDS011;10743;52.160;20.910;2023-04-01T11:51:06;14.90;;;7.53;;
21170;SDS011;10743;52.160;20.910;2023-04-01T11:54:14;13.65;;;8.30;;
21170;SDS011;10743;52.160;20.910;2023-04-01T12:04:06;9.50;;;5.72;;
21170;SDS011;10743;52.160;20.910;2023-04-01T12:07:02;11.98;;;6.00;;
21170;SDS011;10743;52.160;20.910;2023-04-01T12:09:52;10.27;;;6.30;;
21170;SDS011;10743;52.160;20.910;2023-04-01T12:13:02;14.52;;;7.97;;
21170;SDS011;10743;52.160;20.910;2023-04-01T12:15:58;13.85;;;7.68;;
21170;SDS011;10743;52.160;20.910;2023-04-01T12:18:57;14.57;;;8.20;;
21170;SDS011;10743;52.160;20.910;2023-04-01T12:39:48;10.48;;;6.18;;
21170;SDS011;10743;52.160;20.910;2023-04-01T12:45:59;10.65;;;6.70;;
21170;SDS011;10743;52.160;20.910;2023-04-01T12:52:22;11.20;;;7.03;;
21170;SDS011;10743;52.160;20.910;2023-04-01T12:55:47;10.75;;;6.55;;
21170;SDS011;10743;52.160;20.910;2023-04-01T13:07:01;8.65;;;5.35;;
21170;SDS011;10743;52.160;20.910;2023-04-01T13:24:28;8.50;;;5.65;;
21170;SDS011;10743;52.160;20.910;2023-04-01T13:27:14;8.95;;;5.88;;
21170;SDS011;10743;52.160;20.910;2023-04-01T13:50:08;2.35;;;2.13;;
21170;SDS011;10743;52.160;20.910;2023-04-01T14:02:44;2.10;;;1.90;;
21170;SDS011;10743;52.160;20.910;2023-04-01T14:14:35;2.65;;;1.73;;
21170;SDS011;10743;52.160;20.910;2023-04-01T14:17:30;1.80;;;1.70;;
21170;SDS011;10743;52.160;20.910;2023-04-01T14:20:20;2.10;;;1.90;;
21170;SDS011;10743;52.160;20.910;2023-04-01T14:26:03;2.60;;;2.05;;
21170;SDS011;10743;52.160;20.910;2023-04-01T14:29:18;2.58;;;1.92;;
21170;SDS011;10743;52.160;20.910;2023-04-01T14:31:48;3.10;;;2.30;;
21170;SDS011;10743;52.160;20.910;2023-04-01T14:40:58;3.63;;;2.53;;
21170;SDS011;10743;52.160;20.910;2023-04-01T14:46:22;4.60;;;2.60;;
21170;SDS011;10743;52.160;20.910;2023-04-01T14:48:57;4.80;;;2.28;;
21170;SDS011;10743;52.160;20.910;2023-04-01T14:51:41;2.88;;;2.35;;
21170;SDS011;10743;52.160;20.910;2023-04-01T14:56:50;2.95;;;2.00;;
21170;SDS011;10743;52.160;20.910;2023-04-01T14:59:34;4.05;;;2.10;;
21170;SDS011;10743;52.160;20.910;2023-04-01T15:08:52;2.47;;;2.00;;
21170;SDS011;10743;52.160;20.910;2023-04-01T15:17:30;2.10;;;1.80;;
21170;SDS011;10743;52.160;20.910;2023-04-01T15:40:22;3.47;;;2.72;;
21170;SDS011;10743;52.160;20.910;2023-04-01T15:43:15;4.22;;;2.80;;
21170;SDS011;10743;52.160;20.910;2023-04-01T16:21:43;2.78;;;1.77;;
21170;SDS011;10743;52.160;20.910;2023-04-01T16:27:36;2.80;;;1.98;;
21170;SDS011;10743;52.160;20.910;2023-04-01T16:30:37;4.55;;;2.35;;
21170;SDS011;10743;52.160;20.910;2023-04-01T16:33:52;2.85;;;1.80;;
21170;SDS011;10743;52.160;20.910;2023-04-01T16:39:21;2.35;;;1.73;;
21170;SDS011;10743;52.160;20.910;2023-04-01T16:47:56;2.08;;;1.50;;
21170;SDS011;10743;52.160;20.910;2023-04-01T16:50:42;2.17;;;1.88;;
21170;SDS011;10743;52.160;20.910;2023-04-01T16:53:43;3.20;;;1.80;;
21170;SDS011;10743;52.160;20.910;2023-04-01T16:56:21;2.45;;;1.90;;
21170;SDS011;10743;52.160;20.910;2023-04-01T17:04:45;2.67;;;2.08;;
21170;SDS011;10743;52.160;20.910;2023-04-01T17:10:19;1.73;;;1.63;;
21170;SDS011;10743;52.160;20.910;2023-04-01T17:16:22;2.05;;;1.52;;
21170;SDS011;10743;52.160;20.910;2023-04-01T17:39:48;2.60;;;2.20;;
21170;SDS011;10743;52.160;20.910;2023-04-01T17:45:38;5.55;;;3.58;;
21170;SDS011;10743;52.160;20.910;2023-04-01T17:54:26;5.10;;;3.40;;
21170;SDS011;10743;52.160;20.910;2023-04-01T17:57:29;6.63;;;3.90;;
21170;SDS011;10743;52.160;20.910;2023-04-01T18:00:18;6.55;;;3.78;;
21170;SDS011;10743;52.160;20.910;2023-04-01T18:06:03;4.65;;;3.35;;
21170;SDS011;10743;52.160;20.910;2023-04-01T18:08:57;5.40;;;3.60;;
21170;SDS011;10743;52.160;20.910;2023-04-01T18:17:25;6.95;;;4.22;;
21170;SDS011;10743;52.160;20.910;2023-04-01T18:26:28;7.43;;;4.40;;
21170;SDS011;10743;52.160;20.910;2023-04-01T18:31:49;7.10;;;4.32;;
21170;SDS011;10743;52.160;20.910;2023-04-01T18:37:25;7.88;;;4.13;;
21170;SDS011;10743;52.160;20.910;2023-04-01T18:45:37;9.97;;;4.93;;
21170;SDS011;10743;52.160;20.910;2023-04-01T18:51:10;10.77;;;4.80;;
21170;SDS011;10743;52.160;20.910;2023-04-01T18:54:02;8.85;;;4.95;;
21170;SDS011;10743;52.160;20.910;2023-04-01T18:56:43;8.50;;;4.70;;
21170;SDS011;10743;52.160;20.910;2023-04-01T18:59:14;9.60;;;5.22;;
21170;SDS011;10743;52.160;20.910;2023-04-01T19:05:14;8.43;;;4.47;;
21170;SDS011;10743;52.160;20.910;2023-04-01T19:08:20;11.43;;;4.70;;
21170;SDS011;10743;52.160;20.910;2023-04-01T19:22:32;7.78;;;4.63;;
21170;SDS011;10743;52.160;20.910;2023-04-01T19:27:50;8.30;;;5.10;;
21170;SDS011;10743;52.160;20.910;2023-04-01T19:39:17;10.27;;;4.87;;
21170;SDS011;10743;52.160;20.910;2023-04-01T19:51:25;7.30;;;4.80;;
21170;SDS011;10743;52.160;20.910;2023-04-01T19:54:38;7.30;;;4.80;;
21170;SDS011;10743;52.160;20.910;2023-04-01T19:57:46;8.60;;;5.10;;
21170;SDS011;10743;52.160;20.910;2023-04-01T20:00:22;9.02;;;5.00;;
21170;SDS011;10743;52.160;20.910;2023-04-01T20:08:11;8.20;;;4.80;;
21170;SDS011;10743;52.160;20.910;2023-04-01T20:13:45;9.30;;;5.10;;
21170;SDS011;10743;52.160;20.910;2023-04-01T20:19:39;9.07;;;4.80;;
21170;SDS011;10743;52.160;20.910;2023-04-01T20:22:16;7.73;;;4.17;;
21170;SDS011;10743;52.160;20.910;2023-04-01T20:24:57;7.60;;;4.63;;
21170;SDS011;10743;52.160;20.910;2023-04-01T20:27:33;10.57;;;5.05;;
21170;SDS011;10743;52.160;20.910;2023-04-01T20:33:14;9.70;;;4.80;;
21170;SDS011;10743;52.160;20.910;2023-04-01T20:36:03;6.60;;;4.70;;
21170;SDS011;10743;52.160;20.910;2023-04-01T20:53:42;6.73;;;4.17;;
21170;SDS011;10743;52.160;20.910;2023-04-01T21:01:57;7.33;;;4.30;;
21170;SDS011;10743;52.160;20.910;2023-04-01T21:07:40;5.10;;;3.83;;
21170;SDS011;10743;52.160;20.910;2023-04-01T21:11:04;6.00;;;3.83;;
21170;SDS011;10743;52.160;20.910;2023-04-01T21:25:39;7.60;;;4.10;;
21170;SDS011;10743;52.160;20.910;2023-04-01T21:34:31;5.40;;;3.80;;
21170;SDS011;10743;52.160;20.910;2023-04-01T21:46:44;5.25;;;3.58;;
21170;SDS011;10743;52.160;20.910;2023-04-01T22:05:16;7.73;;;3.63;;
21170;SDS011;10743;52.160;20.910;2023-04-01T22:07:59;6.78;;;3.85;;
21170;SDS011;10743;52.160;20.910;2023-04-01T22:10:57;7.63;;;3.70;;
21170;SDS011;10743;52.160;20.910;2023-04-01T22:13:31;7.03;;;4.13;;
21170;SDS011;10743;52.160;20.910;2023-04-01T22:19:10;7.53;;;4.23;;
21170;SDS011;10743;52.160;20.910;2023-04-01T22:21:52;6.37;;;4.00;;
21170;SDS011;10743;52.160;20.910;2023-04-01T22:25:02;7.10;;;3.67;;
21170;SDS011;10743;52.160;20.910;2023-04-01T22:30:53;5.93;;;4.13;;
21170;SDS011;10743;52.160;20.910;2023-04-01T22:42:10;7.37;;;4.00;;
21170;SDS011;10743;52.160;20.910;2023-04-01T22:45:06;6.23;;;4.20;;
21170;SDS011;10743;52.160;20.910;2023-04-01T22:47:44;5.93;;;3.93;;
21170;SDS011;10743;52.160;20.910;2023-04-01T22:50:31;9.37;;;4.60;;
21170;SDS011;10743;52.160;20.910;2023-04-01T22:55:57;7.57;;;4.30;;
21170;SDS011;10743;52.160;20.910;2023-04-01T22:58:32;6.03;;;4.00;;
21170;SDS011;10743;52.160;20.910;2023-04-01T23:01:07;6.50;;;3.93;;
21170;SDS011;10743;52.160;20.910;2023-04-01T23:03:41;9.30;;;4.57;;
21170;SDS011;10743;52.160;20.910;2023-04-01T23:06:16;8.33;;;4.20;;
21170;SDS011;10743;52.160;20.910;2023-04-01T23:08:54;8.63;;;4.17;;
21170;SDS011;10743;52.160;20.910;2023-04-01T23:11:45;8.53;;;3.93;;
21170;SDS011;10743;52.160;20.910;2023-04-01T23:20:00;7.80;;;4.07;;
21170;SDS011;10743;52.160;20.910;2023-04-01T23:33:15;7.50;;;4.30;;
21170;SDS011;10743;52.160;20.910;2023-04-01T23:36:21;8.27;;;4.37;;
21170;SDS011;10743;52.160;20.910;2023-04-01T23:38:42;7.27;;;4.57;;
21170;SDS011;10743;52.160;20.910;2023-04-01T23:41:18;8.47;;;4.33;;
21170;SDS011;10743;52.160;20.910;2023-04-01T23:43:57;8.30;;;4.60;;
21170;SDS011;10743;52.160;20.910;2023-04-01T23:46:37;6.63;;;4.33;;
21170;SDS011;10743;52.160;20.910;2023-04-01T23:49:29;9.10;;;4.27;;
21170;SDS011;10743;52.160;20.910;2023-04-01T23:51:59;5.83;;;4.20;;
21170;SDS011;10743;52.160;20.910;2023-04-01T23:54:41;8.37;;;4.03;;
21170;SDS011;10743;52.160;20.910;2023-04-01T23:57:22;5.73;;;3.70;;
